Langley, AR

4:47 PM CDT on July 25, 2016 (GMT -0500)
Paradise South Golf Course | | Change Station

Elev 700 ft 34.43 °N, 93.71 °W | Updated 25 seconds ago

Overcast
Overcast
81.1 °F
Feels Like 86 °F
N
1.6
Wind Variable Wind from ESE
Gusts 2.2 mph

Today
High -- | Low -- °F
--% Chance of Precip.
Yesterday
High -- | Low -- °F
Precip. -- in
Pressure 29.91 in
Visibility 7.0 miles
Clouds Scattered Clouds 5500 ft
Mostly Cloudy 7000 ft
Overcast 10000 ft
Heat Index 86 °F
Dew Point 72 °F
Humidity 74%
Rainfall 0.09 in
Snow Depth Not available.
6:21 AM 8:21 PM
Waning Gibbous, 62% visible
METAR KMWT 252053Z AUTO 00000KT 7SM -RA SCT055 BKN070 OVC100 24/24 A2994 RMK AO2 RAB08 PRESFR SLP129 P0023 60023 T02440239 58016
Pressure 29.91 in
Visibility 7.0 miles
Clouds Scattered Clouds 5500 ft
Mostly Cloudy 7000 ft
Overcast 10000 ft
Heat Index 86 °F
Dew Point 72 °F
Humidity 74%
Rainfall 0.09 in
Snow Depth Not available.
6:21 AM 8:21 PM
Waning Gibbous, 62% visible
METAR KMWT 252053Z AUTO 00000KT 7SM -RA SCT055 BKN070 OVC100 24/24 A2994 RMK AO2 RAB08 PRESFR SLP129 P0023 60023 T02440239 58016

10-Day Weather Forecast

Almanac

Astronomy

Jul. 25, 2016 Rise Set
Actual Time
Civil Twilight
Nautical Twilight
Astronomical Twilight
Moon
Length of Visible Light
Length of Day
Tomorrow will be .
, % of the Moon is Illuminated

Today's Extremes

State Highs State Lows

Community

WunderPhotos

Upload Photos

1,927,424 photos uploaded!

WunderBlog® & News

Nearby

Air Quality

  Air Quality AQ Index Pollutant
Not available.

Snow Depth

Station Depth Elevation

Earthquake Activity

City Distance Mag. Time & Date
Minimum magnitude displayed is 2.5.

Coastal Water Temperatures

Place Temperature

Stations

Nearby Weather Stations

Station Location Temp. Windchill Dew Point Humidity Wind Precip. Elev Updated Type
                   

Watches & Warnings

There are currently no watches in effect.